sensor_id;sensor_type;location;lat;lon;timestamp;pressure;altitude;pressure_sealevel;temperature;humidity
63665;BME280;49820;33.966;73.390;2023-03-22T00:01:25;78555.38;;;3.91;100.00
63665;BME280;49820;33.966;73.390;2023-03-22T00:03:59;78588.88;;;4.21;100.00
63665;BME280;49820;33.966;73.390;2023-03-22T00:06:27;78596.13;;;4.22;100.00
63665;BME280;49820;33.966;73.390;2023-03-22T00:08:57;78576.97;;;4.22;100.00
63665;BME280;49820;33.966;73.390;2023-03-22T00:11:25;78579.56;;;4.30;100.00
63665;BME280;49820;33.966;73.390;2023-03-22T00:13:55;78563.75;;;4.22;100.00
63665;BME280;49820;33.966;73.390;2023-03-22T00:16:26;78584.06;;;4.48;100.00
63665;BME280;49820;33.966;73.390;2023-03-22T00:18:55;78581.47;;;4.42;100.00
63665;BME280;49820;33.966;73.390;2023-03-22T00:21:24;78582.72;;;4.49;100.00
63665;BME280;49820;33.966;73.390;2023-03-22T00:23:53;78591.31;;;4.51;100.00
63665;BME280;49820;33.966;73.390;2023-03-22T00:26:22;78589.38;;;4.46;100.00
63665;BME280;49820;33.966;73.390;2023-03-22T00:28:51;78589.31;;;4.54;100.00
63665;BME280;49820;33.966;73.390;2023-03-22T00:31:20;78604.44;;;4.66;100.00
63665;BME280;49820;33.966;73.390;2023-03-22T00:33:50;78605.75;;;4.67;100.00
63665;BME280;49820;33.966;73.390;2023-03-22T00:36:19;78604.47;;;4.59;100.00
63665;BME280;49820;33.966;73.390;2023-03-22T00:38:51;78599.91;;;4.52;100.00
63665;BME280;49820;33.966;73.390;2023-03-22T00:41:22;78608.56;;;4.42;100.00
63665;BME280;49820;33.966;73.390;2023-03-22T00:43:51;78608.63;;;4.30;100.00
63665;BME280;49820;33.966;73.390;2023-03-22T00:46:21;78610.03;;;4.21;100.00
63665;BME280;49820;33.966;73.390;2023-03-22T00:48:50;78618.03;;;4.09;100.00
63665;BME280;49820;33.966;73.390;2023-03-22T02:04:36;78675.91;;;8.40;100.00
63665;BME280;49820;33.966;73.390;2023-03-22T02:07:10;78686.66;;;8.71;100.00
63665;BME280;49820;33.966;73.390;2023-03-22T02:09:46;78673.84;;;8.79;100.00
63665;BME280;49820;33.966;73.390;2023-03-22T02:12:44;78671.91;;;9.09;100.00
63665;BME280;49820;33.966;73.390;2023-03-22T02:15:53;78677.78;;;9.48;100.00
63665;BME280;49820;33.966;73.390;2023-03-22T02:36:59;78709.78;;;11.67;93.70
63665;BME280;49820;33.966;73.390;2023-03-22T02:48:07;78725.69;;;12.42;89.83
63665;BME280;49820;33.966;73.390;2023-03-22T02:53:15;78733.50;;;12.93;84.21
63665;BME280;49820;33.966;73.390;2023-03-22T02:58:26;78736.19;;;13.35;69.01
63665;BME280;49820;33.966;73.390;2023-03-22T03:01:04;78737.09;;;13.69;74.14
63665;BME280;49820;33.966;73.390;2023-03-22T03:03:36;78728.75;;;13.77;68.62
63665;BME280;49820;33.966;73.390;2023-03-22T03:06:09;78741.06;;;14.09;72.80
63665;BME280;49820;33.966;73.390;2023-03-22T03:08:41;78742.44;;;14.27;68.71
63665;BME280;49820;33.966;73.390;2023-03-22T03:11:12;78726.31;;;14.27;68.65
63665;BME280;49820;33.966;73.390;2023-03-22T03:13:41;78730.69;;;14.56;74.62
63665;BME280;49820;33.966;73.390;2023-03-22T03:16:11;78721.47;;;14.50;69.07
63665;BME280;49820;33.966;73.390;2023-03-22T03:19:05;78747.69;;;14.50;73.96
63665;BME280;49820;33.966;73.390;2023-03-22T03:21:54;78748.75;;;14.76;70.76
63665;BME280;49820;33.966;73.390;2023-03-22T03:27:32;78748.41;;;14.48;68.73
63665;BME280;49820;33.966;73.390;2023-03-22T03:30:15;78746.78;;;15.45;71.91
63665;BME280;49820;33.966;73.390;2023-03-22T03:32:54;78735.38;;;15.61;71.06
63665;BME280;49820;33.966;73.390;2023-03-22T03:35:34;78747.81;;;15.88;68.87
63665;BME280;49820;33.966;73.390;2023-03-22T03:38:19;78762.41;;;16.10;65.23
63665;BME280;49820;33.966;73.390;2023-03-22T03:41:03;78752.94;;;15.94;58.75
63665;BME280;49820;33.966;73.390;2023-03-22T03:43:33;78768.13;;;15.85;57.86
63665;BME280;49820;33.966;73.390;2023-03-22T03:46:04;78768.34;;;15.62;58.51
63665;BME280;49820;33.966;73.390;2023-03-22T03:48:36;78771.06;;;15.62;69.18
63665;BME280;49820;33.966;73.390;2023-03-22T03:51:10;78773.91;;;15.91;61.93
63665;BME280;49820;33.966;73.390;2023-03-22T03:53:39;78765.13;;;16.41;69.90
63665;BME280;49820;33.966;73.390;2023-03-22T03:56:08;78772.56;;;16.40;68.66
63665;BME280;49820;33.966;73.390;2023-03-22T03:58:42;78765.84;;;16.39;68.77
63665;BME280;49820;33.966;73.390;2023-03-22T04:01:11;78766.00;;;16.04;68.18
63665;BME280;49820;33.966;73.390;2023-03-22T04:03:53;78772.88;;;16.49;67.62
63665;BME280;49820;33.966;73.390;2023-03-22T04:06:47;78781.81;;;16.29;64.85
63665;BME280;49820;33.966;73.390;2023-03-22T04:09:22;78792.44;;;16.16;65.26
63665;BME280;49820;33.966;73.390;2023-03-22T04:11:56;78770.72;;;16.03;63.89
63665;BME280;49820;33.966;73.390;2023-03-22T04:14:25;78796.13;;;16.09;65.21
63665;BME280;49820;33.966;73.390;2023-03-22T04:16:58;78795.31;;;15.79;73.10
63665;BME280;49820;33.966;73.390;2023-03-22T04:19:29;78782.44;;;15.46;66.48
63665;BME280;49820;33.966;73.390;2023-03-22T04:22:00;78801.03;;;15.52;74.63
63665;BME280;49820;33.966;73.390;2023-03-22T04:24:31;78791.69;;;15.15;69.11
63665;BME280;49820;33.966;73.390;2023-03-22T04:27:01;78797.78;;;15.14;63.50
63665;BME280;49820;33.966;73.390;2023-03-22T04:29:36;78809.75;;;14.63;68.02
63665;BME280;49820;33.966;73.390;2023-03-22T04:32:23;78804.78;;;13.92;66.88
63665;BME280;49820;33.966;73.390;2023-03-22T04:34:54;78817.53;;;13.92;65.00
63665;BME280;49820;33.966;73.390;2023-03-22T04:37:24;78824.50;;;13.43;67.07
63665;BME280;49820;33.966;73.390;2023-03-22T04:40:09;78823.44;;;13.34;65.00
63665;BME280;49820;33.966;73.390;2023-03-22T04:43:06;78811.13;;;13.20;69.12
63665;BME280;49820;33.966;73.390;2023-03-22T04:45:48;78813.41;;;12.43;72.94
63665;BME280;49820;33.966;73.390;2023-03-22T04:48:21;78813.41;;;12.43;72.88
63665;BME280;49820;33.966;73.390;2023-03-22T04:50:51;78809.53;;;12.61;71.80
63665;BME280;49820;33.966;73.390;2023-03-22T04:53:25;78829.78;;;12.79;76.05
63665;BME280;49820;33.966;73.390;2023-03-22T04:56:01;78819.00;;;12.10;73.83
63665;BME280;49820;33.966;73.390;2023-03-22T04:58:35;78833.56;;;11.66;78.65
63665;BME280;49820;33.966;73.390;2023-03-22T05:01:07;78827.13;;;11.57;79.04
63665;BME280;49820;33.966;73.390;2023-03-22T05:03:39;78814.19;;;11.65;78.26
63665;BME280;49820;33.966;73.390;2023-03-22T05:06:12;78824.00;;;11.73;81.55
63665;BME280;49820;33.966;73.390;2023-03-22T05:09:02;78842.66;;;11.77;75.32
63665;BME280;49820;33.966;73.390;2023-03-22T05:11:32;78822.25;;;12.15;89.54
63665;BME280;49820;33.966;73.390;2023-03-22T05:14:22;78824.69;;;11.98;77.81
63665;BME280;49820;33.966;73.390;2023-03-22T05:16:51;78813.16;;;12.04;79.55
63665;BME280;49820;33.966;73.390;2023-03-22T05:19:21;78816.75;;;12.19;78.00
63665;BME280;49820;33.966;73.390;2023-03-22T05:21:52;78816.97;;;12.11;80.19
63665;BME280;49820;33.966;73.390;2023-03-22T05:24:39;78818.91;;;11.90;74.87
63665;BME280;49820;33.966;73.390;2023-03-22T05:27:13;78830.78;;;12.44;78.97
63665;BME280;49820;33.966;73.390;2023-03-22T05:29:43;78828.06;;;12.46;76.59
63665;BME280;49820;33.966;73.390;2023-03-22T05:32:18;78829.44;;;12.68;77.10
63665;BME280;49820;33.966;73.390;2023-03-22T05:34:55;78835.34;;;12.73;79.33
63665;BME280;49820;33.966;73.390;2023-03-22T05:37:31;78833.50;;;12.42;78.50
63665;BME280;49820;33.966;73.390;2023-03-22T05:40:01;78812.63;;;11.99;80.59
63665;BME280;49820;33.966;73.390;2023-03-22T05:42:43;78832.88;;;11.92;80.25
63665;BME280;49820;33.966;73.390;2023-03-22T05:45:20;78833.81;;;11.56;79.50
63665;BME280;49820;33.966;73.390;2023-03-22T05:48:02;78836.53;;;11.54;80.87
63665;BME280;49820;33.966;73.390;2023-03-22T05:50:33;78821.16;;;11.54;81.72
63665;BME280;49820;33.966;73.390;2023-03-22T05:53:03;78804.28;;;11.35;78.20
63665;BME280;49820;33.966;73.390;2023-03-22T05:56:05;78810.97;;;11.34;82.80
63665;BME280;49820;33.966;73.390;2023-03-22T05:58:40;78831.59;;;11.37;79.57
63665;BME280;49820;33.966;73.390;2023-03-22T06:01:13;78813.59;;;11.09;80.91
63665;BME280;49820;33.966;73.390;2023-03-22T06:03:45;78830.06;;;10.91;83.38
63665;BME280;49820;33.966;73.390;2023-03-22T06:06:29;78808.97;;;10.79;89.63
63665;BME280;49820;33.966;73.390;2023-03-22T06:09:07;78813.88;;;10.97;91.45
63665;BME280;49820;33.966;73.390;2023-03-22T06:11:49;78822.19;;;10.85;89.43
63665;BME280;49820;33.966;73.390;2023-03-22T06:14:18;78825.47;;;10.87;88.62
63665;BME280;49820;33.966;73.390;2023-03-22T06:17:04;78822.44;;;10.75;92.90
63665;BME280;49820;33.966;73.390;2023-03-22T06:19:33;78817.88;;;10.98;91.67
63665;BME280;49820;33.966;73.390;2023-03-22T06:22:04;78816.63;;;11.48;97.11
63665;BME280;49820;33.966;73.390;2023-03-22T06:24:35;78811.44;;;11.42;85.02
63665;BME280;49820;33.966;73.390;2023-03-22T06:27:10;78823.44;;;11.95;95.33
63665;BME280;49820;33.966;73.390;2023-03-22T06:29:41;78804.84;;;11.64;80.63
63665;BME280;49820;33.966;73.390;2023-03-22T06:32:11;78819.13;;;11.81;80.95
63665;BME280;49820;33.966;73.390;2023-03-22T06:34:41;78767.50;;;12.55;77.81
63665;BME280;49820;33.966;73.390;2023-03-22T06:37:12;78803.41;;;12.65;75.42
63665;BME280;49820;33.966;73.390;2023-03-22T06:39:42;78813.25;;;14.59;71.42
63665;BME280;49820;33.966;73.390;2023-03-22T06:42:13;78812.44;;;14.23;78.14
63665;BME280;49820;33.966;73.390;2023-03-22T06:44:50;78805.31;;;13.76;71.73
63665;BME280;49820;33.966;73.390;2023-03-22T06:47:28;78820.84;;;12.86;82.59
63665;BME280;49820;33.966;73.390;2023-03-22T06:50:00;78801.91;;;12.24;77.63
63665;BME280;49820;33.966;73.390;2023-03-22T06:52:52;78798.53;;;11.76;83.88
63665;BME280;49820;33.966;73.390;2023-03-22T06:55:24;78801.81;;;11.52;94.39
63665;BME280;49820;33.966;73.390;2023-03-22T06:57:54;78790.94;;;11.06;100.00
63665;BME280;49820;33.966;73.390;2023-03-22T07:00:23;78789.22;;;10.67;100.00
63665;BME280;49820;33.966;73.390;2023-03-22T07:02:52;78803.06;;;10.14;100.00
63665;BME280;49820;33.966;73.390;2023-03-22T07:05:35;78817.47;;;9.64;100.00
63665;BME280;49820;33.966;73.390;2023-03-22T07:08:04;78804.16;;;9.27;100.00
63665;BME280;49820;33.966;73.390;2023-03-22T07:10:37;78819.78;;;8.73;100.00
63665;BME280;49820;33.966;73.390;2023-03-22T07:13:06;78801.59;;;8.01;100.00
63665;BME280;49820;33.966;73.390;2023-03-22T07:15:37;78805.66;;;7.96;100.00
63665;BME280;49820;33.966;73.390;2023-03-22T07:18:27;78802.84;;;8.07;100.00
63665;BME280;49820;33.966;73.390;2023-03-22T07:20:56;78788.63;;;8.24;100.00
63665;BME280;49820;33.966;73.390;2023-03-22T07:23:26;78797.28;;;9.03;100.00
63665;BME280;49820;33.966;73.390;2023-03-22T07:26:06;78805.47;;;9.95;100.00
63665;BME280;49820;33.966;73.390;2023-03-22T07:28:38;78802.28;;;9.21;100.00
63665;BME280;49820;33.966;73.390;2023-03-22T07:31:13;78819.44;;;9.30;100.00
63665;BME280;49820;33.966;73.390;2023-03-22T07:33:58;78821.84;;;9.07;100.00
63665;BME280;49820;33.966;73.390;2023-03-22T07:36:30;78807.16;;;9.08;100.00
63665;BME280;49820;33.966;73.390;2023-03-22T07:39:00;78818.72;;;8.97;100.00
63665;BME280;49820;33.966;73.390;2023-03-22T07:41:37;78811.22;;;8.25;100.00
63665;BME280;49820;33.966;73.390;2023-03-22T07:44:22;78808.06;;;7.68;100.00
63665;BME280;49820;33.966;73.390;2023-03-22T07:47:18;78817.16;;;7.34;100.00
63665;BME280;49820;33.966;73.390;2023-03-22T07:50:36;78820.56;;;6.69;100.00
63665;BME280;49820;33.966;73.390;2023-03-22T07:53:06;78804.25;;;6.42;100.00
63665;BME280;49820;33.966;73.390;2023-03-22T07:55:35;78823.97;;;6.61;100.00
63665;BME280;49820;33.966;73.390;2023-03-22T07:58:04;78821.31;;;6.59;100.00
63665;BME280;49820;33.966;73.390;2023-03-22T08:00:35;78822.44;;;6.80;100.00
63665;BME280;49820;33.966;73.390;2023-03-22T08:03:36;78812.91;;;7.00;100.00
63665;BME280;49820;33.966;73.390;2023-03-22T08:06:28;78807.41;;;7.16;100.00
63665;BME280;49820;33.966;73.390;2023-03-22T08:09:00;78793.25;;;8.67;100.00
63665;BME280;49820;33.966;73.390;2023-03-22T08:11:29;78772.13;;;9.64;100.00
63665;BME280;49820;33.966;73.390;2023-03-22T08:13:59;78792.13;;;9.95;100.00
63665;BME280;49820;33.966;73.390;2023-03-22T08:16:31;78776.53;;;9.42;100.00
63665;BME280;49820;33.966;73.390;2023-03-22T08:19:02;78773.47;;;9.30;100.00
63665;BME280;49820;33.966;73.390;2023-03-22T08:21:35;78770.66;;;9.01;100.00
63665;BME280;49820;33.966;73.390;2023-03-22T08:24:07;78777.03;;;8.81;100.00
63665;BME280;49820;33.966;73.390;2023-03-22T08:26:49;78763.84;;;8.73;100.00
63665;BME280;49820;33.966;73.390;2023-03-22T08:29:31;78773.25;;;8.68;100.00
63665;BME280;49820;33.966;73.390;2023-03-22T08:32:02;78754.56;;;8.33;100.00
63665;BME280;49820;33.966;73.390;2023-03-22T08:34:36;78759.66;;;8.04;100.00
63665;BME280;49820;33.966;73.390;2023-03-22T08:37:07;78752.56;;;7.90;100.00
63665;BME280;49820;33.966;73.390;2023-03-22T08:39:37;78754.56;;;7.90;100.00
63665;BME280;49820;33.966;73.390;2023-03-22T08:42:33;78752.25;;;7.68;100.00
63665;BME280;49820;33.966;73.390;2023-03-22T08:45:02;78770.97;;;7.59;100.00
63665;BME280;49820;33.966;73.390;2023-03-22T08:47:33;78754.19;;;7.24;100.00
63665;BME280;49820;33.966;73.390;2023-03-22T08:50:03;78762.75;;;7.28;100.00
63665;BME280;49820;33.966;73.390;2023-03-22T08:52:43;78755.81;;;6.99;100.00
63665;BME280;49820;33.966;73.390;2023-03-22T08:55:30;78744.59;;;6.94;100.00
63665;BME280;49820;33.966;73.390;2023-03-22T08:58:08;78725.59;;;6.73;100.00
63665;BME280;49820;33.966;73.390;2023-03-22T09:00:53;78738.81;;;6.79;100.00
63665;BME280;49820;33.966;73.390;2023-03-22T09:03:39;78734.09;;;6.86;100.00
63665;BME280;49820;33.966;73.390;2023-03-22T09:06:09;78708.53;;;6.58;100.00
63665;BME280;49820;33.966;73.390;2023-03-22T09:08:41;78709.81;;;6.63;100.00
63665;BME280;49820;33.966;73.390;2023-03-22T09:11:14;78725.47;;;6.85;100.00
63665;BME280;49820;33.966;73.390;2023-03-22T09:13:50;78729.16;;;7.07;100.00
63665;BME280;49820;33.966;73.390;2023-03-22T09:16:19;78707.91;;;7.07;100.00
63665;BME280;49820;33.966;73.390;2023-03-22T09:18:49;78720.50;;;7.10;100.00
63665;BME280;49820;33.966;73.390;2023-03-22T09:21:20;78719.72;;;7.18;100.00
63665;BME280;49820;33.966;73.390;2023-03-22T09:23:55;78709.88;;;7.08;100.00
63665;BME280;49820;33.966;73.390;2023-03-22T09:26:38;78699.28;;;7.06;100.00
63665;BME280;49820;33.966;73.390;2023-03-22T09:29:07;78701.22;;;7.12;100.00
63665;BME280;49820;33.966;73.390;2023-03-22T09:31:36;78686.81;;;7.44;100.00
63665;BME280;49820;33.966;73.390;2023-03-22T09:34:14;78690.19;;;7.81;100.00
63665;BME280;49820;33.966;73.390;2023-03-22T09:36:44;78657.53;;;9.57;100.00
63665;BME280;49820;33.966;73.390;2023-03-22T09:39:18;78647.25;;;10.55;100.00
63665;BME280;49820;33.966;73.390;2023-03-22T09:41:57;78668.53;;;10.32;100.00
63665;BME280;49820;33.966;73.390;2023-03-22T09:44:33;78672.34;;;9.81;100.00
63665;BME280;49820;33.966;73.390;2023-03-22T09:47:14;78663.59;;;9.56;100.00
63665;BME280;49820;33.966;73.390;2023-03-22T09:49:48;78660.22;;;9.57;100.00
63665;BME280;49820;33.966;73.390;2023-03-22T09:52:20;78650.03;;;9.35;100.00
63665;BME280;49820;33.966;73.390;2023-03-22T09:54:49;78669.59;;;9.56;100.00
63665;BME280;49820;33.966;73.390;2023-03-22T10:10:32;78647.56;;;8.94;100.00
63665;BME280;49820;33.966;73.390;2023-03-22T10:18:29;78647.38;;;9.04;100.00
63665;BME280;49820;33.966;73.390;2023-03-22T10:21:07;78647.59;;;8.92;100.00
63665;BME280;49820;33.966;73.390;2023-03-22T10:23:45;78639.75;;;8.86;100.00
63665;BME280;49820;33.966;73.390;2023-03-22T10:26:26;78641.88;;;8.79;100.00
63665;BME280;49820;33.966;73.390;2023-03-22T10:29:01;78626.00;;;8.75;100.00
63665;BME280;49820;33.966;73.390;2023-03-22T10:31:33;78632.94;;;8.93;100.00
63665;BME280;49820;33.966;73.390;2023-03-22T10:34:06;78637.19;;;9.13;100.00
63665;BME280;49820;33.966;73.390;2023-03-22T10:36:38;78624.78;;;9.01;100.00
63665;BME280;49820;33.966;73.390;2023-03-22T10:41:44;78626.25;;;8.94;100.00
63665;BME280;49820;33.966;73.390;2023-03-22T10:44:18;78625.59;;;8.94;100.00
63665;BME280;49820;33.966;73.390;2023-03-22T10:46:50;78615.06;;;8.88;100.00
63665;BME280;49820;33.966;73.390;2023-03-22T10:49:42;78619.69;;;8.91;100.00
63665;BME280;49820;33.966;73.390;2023-03-22T10:55:13;78606.91;;;8.96;100.00
63665;BME280;49820;33.966;73.390;2023-03-22T10:57:59;78619.66;;;9.24;100.00
63665;BME280;49820;33.966;73.390;2023-03-22T11:00:43;78616.34;;;9.52;100.00
63665;BME280;49820;33.966;73.390;2023-03-22T11:08:43;78604.94;;;9.83;100.00
63665;BME280;49820;33.966;73.390;2023-03-22T11:11:29;78613.22;;;9.73;100.00
63665;BME280;49820;33.966;73.390;2023-03-22T11:14:06;78590.28;;;10.11;100.00
63665;BME280;49820;33.966;73.390;2023-03-22T11:19:18;78573.19;;;10.00;100.00
63665;BME280;49820;33.966;73.390;2023-03-22T11:21:50;78590.84;;;10.67;100.00
63665;BME280;49820;33.966;73.390;2023-03-22T11:24:20;78593.94;;;11.48;100.00
63665;BME280;49820;33.966;73.390;2023-03-22T11:29:57;78589.00;;;11.79;100.00
63665;BME280;49820;33.966;73.390;2023-03-22T11:32:35;78579.72;;;11.99;100.00
63665;BME280;49820;33.966;73.390;2023-03-22T11:35:23;78579.66;;;11.56;100.00
63665;BME280;49820;33.966;73.390;2023-03-22T11:37:55;78569.44;;;10.69;100.00
63665;BME280;49820;33.966;73.390;2023-03-22T11:40:33;78569.03;;;10.33;100.00
63665;BME280;49820;33.966;73.390;2023-03-22T11:43:36;78586.22;;;9.85;100.00
63665;BME280;49820;33.966;73.390;2023-03-22T11:46:07;78591.56;;;9.85;100.00
63665;BME280;49820;33.966;73.390;2023-03-22T11:48:40;78596.28;;;10.11;100.00
63665;BME280;49820;33.966;73.390;2023-03-22T11:51:13;78600.56;;;10.27;100.00
63665;BME280;49820;33.966;73.390;2023-03-22T11:53:47;78602.44;;;9.77;100.00
63665;BME280;49820;33.966;73.390;2023-03-22T11:56:18;78597.75;;;9.77;100.00
63665;BME280;49820;33.966;73.390;2023-03-22T11:59:06;78592.00;;;9.67;100.00
63665;BME280;49820;33.966;73.390;2023-03-22T12:01:45;78589.75;;;9.19;100.00
63665;BME280;49820;33.966;73.390;2023-03-22T12:04:21;78600.78;;;9.01;100.00
63665;BME280;49820;33.966;73.390;2023-03-22T12:06:56;78585.34;;;9.08;100.00
63665;BME280;49820;33.966;73.390;2023-03-22T12:09:40;78602.09;;;9.02;100.00
63665;BME280;49820;33.966;73.390;2023-03-22T12:12:16;78603.75;;;9.18;100.00
63665;BME280;49820;33.966;73.390;2023-03-22T12:15:05;78617.56;;;8.96;100.00
63665;BME280;49820;33.966;73.390;2023-03-22T12:17:52;78604.75;;;8.71;100.00
63665;BME280;49820;33.966;73.390;2023-03-22T12:20:42;78616.38;;;8.89;100.00
63665;BME280;49820;33.966;73.390;2023-03-22T12:23:18;78604.22;;;8.65;100.00
63665;BME280;49820;33.966;73.390;2023-03-22T12:28:26;78602.75;;;8.39;100.00
63665;BME280;49820;33.966;73.390;2023-03-22T12:30:57;78613.88;;;8.48;100.00
63665;BME280;49820;33.966;73.390;2023-03-22T12:33:30;78616.69;;;8.39;100.00
63665;BME280;49820;33.966;73.390;2023-03-22T12:36:09;78618.69;;;8.41;100.00
63665;BME280;49820;33.966;73.390;2023-03-22T12:41:25;78607.56;;;8.28;100.00
63665;BME280;49820;33.966;73.390;2023-03-22T12:44:23;78625.84;;;8.49;100.00
63665;BME280;49820;33.966;73.390;2023-03-22T12:46:58;78624.56;;;8.46;100.00
63665;BME280;49820;33.966;73.390;2023-03-22T12:52:24;78634.97;;;8.23;100.00
63665;BME280;49820;33.966;73.390;2023-03-22T12:55:21;78639.66;;;8.20;100.00
63665;BME280;49820;33.966;73.390;2023-03-22T12:57:53;78646.31;;;8.19;100.00
63665;BME280;49820;33.966;73.390;2023-03-22T13:00:41;78624.69;;;8.02;100.00
63665;BME280;49820;33.966;73.390;2023-03-22T13:05:48;78626.78;;;7.96;100.00
63665;BME280;49820;33.966;73.390;2023-03-22T13:08:21;78644.59;;;8.03;100.00
63665;BME280;49820;33.966;73.390;2023-03-22T13:11:02;78647.00;;;7.81;100.00
63665;BME280;49820;33.966;73.390;2023-03-22T13:13:39;78637.16;;;7.73;100.00
63665;BME280;49820;33.966;73.390;2023-03-22T13:21:18;78657.72;;;7.77;100.00
63665;BME280;49820;33.966;73.390;2023-03-22T13:26:45;78663.19;;;7.66;100.00
63665;BME280;49820;33.966;73.390;2023-03-22T13:29:22;78660.72;;;7.54;100.00
63665;BME280;49820;33.966;73.390;2023-03-22T13:32:28;78663.47;;;7.48;100.00
63665;BME280;49820;33.966;73.390;2023-03-22T13:34:58;78660.16;;;7.48;100.00
63665;BME280;49820;33.966;73.390;2023-03-22T13:40:30;78659.38;;;7.55;100.00
63665;BME280;49820;33.966;73.390;2023-03-22T13:43:11;78648.13;;;7.53;100.00
63665;BME280;49820;33.966;73.390;2023-03-22T13:51:32;78658.19;;;7.46;100.00
63665;BME280;49820;33.966;73.390;2023-03-22T13:59:56;78679.41;;;7.48;100.00
63665;BME280;49820;33.966;73.390;2023-03-22T14:02:39;78667.59;;;7.39;100.00
63665;BME280;49820;33.966;73.390;2023-03-22T14:05:19;78658.41;;;7.32;100.00
63665;BME280;49820;33.966;73.390;2023-03-22T14:07:54;78673.44;;;7.48;100.00
63665;BME280;49820;33.966;73.390;2023-03-22T14:16:06;78692.22;;;7.38;100.00
63665;BME280;49820;33.966;73.390;2023-03-22T14:18:39;78694.16;;;7.41;100.00
63665;BME280;49820;33.966;73.390;2023-03-22T14:21:37;78695.50;;;7.40;100.00
63665;BME280;49820;33.966;73.390;2023-03-22T14:24:11;78682.38;;;7.28;100.00
63665;BME280;49820;33.966;73.390;2023-03-22T14:26:45;78701.00;;;7.26;100.00
63665;BME280;49820;33.966;73.390;2023-03-22T14:29:16;78709.03;;;7.22;100.00
63665;BME280;49820;33.966;73.390;2023-03-22T14:32:01;78703.81;;;7.16;100.00
63665;BME280;49820;33.966;73.390;2023-03-22T14:34:32;78692.56;;;7.13;100.00
63665;BME280;49820;33.966;73.390;2023-03-22T14:37:03;78693.78;;;7.20;100.00
63665;BME280;49820;33.966;73.390;2023-03-22T14:39:41;78688.53;;;7.16;100.00
63665;BME280;49820;33.966;73.390;2023-03-22T14:44:52;78684.56;;;7.15;100.00
63665;BME280;49820;33.966;73.390;2023-03-22T14:47:25;78670.81;;;7.01;100.00
63665;BME280;49820;33.966;73.390;2023-03-22T14:49:56;78685.97;;;7.08;100.00
63665;BME280;49820;33.966;73.390;2023-03-22T14:52:27;78648.59;;;6.75;100.00
63665;BME280;49820;33.966;73.390;2023-03-22T14:54:58;78666.50;;;6.77;100.00
63665;BME280;49820;33.966;73.390;2023-03-22T14:57:27;78659.28;;;6.71;100.00
63665;BME280;49820;33.966;73.390;2023-03-22T14:59:56;78670.50;;;6.74;100.00
63665;BME280;49820;33.966;73.390;2023-03-22T15:04:58;78682.50;;;6.73;100.00
63665;BME280;49820;33.966;73.390;2023-03-22T15:07:26;78660.28;;;6.45;100.00
63665;BME280;49820;33.966;73.390;2023-03-22T15:10:11;78684.03;;;6.56;100.00
63665;BME280;49820;33.966;73.390;2023-03-22T15:12:40;78671.44;;;6.54;100.00
63665;BME280;49820;33.966;73.390;2023-03-22T15:15:09;78668.16;;;6.49;100.00
63665;BME280;49820;33.966;73.390;2023-03-22T15:17:39;78670.22;;;6.45;100.00
63665;BME280;49820;33.966;73.390;2023-03-22T15:20:13;78684.81;;;6.44;100.00
63665;BME280;49820;33.966;73.390;2023-03-22T15:22:51;78682.28;;;6.34;100.00
63665;BME280;49820;33.966;73.390;2023-03-22T15:25:25;78688.31;;;6.30;100.00
63665;BME280;49820;33.966;73.390;2023-03-22T15:27:55;78686.38;;;6.25;100.00
63665;BME280;49820;33.966;73.390;2023-03-22T15:30:22;78681.19;;;6.15;100.00
63665;BME280;49820;33.966;73.390;2023-03-22T15:32:49;78657.66;;;5.82;100.00
63665;BME280;49820;33.966;73.390;2023-03-22T15:35:18;78674.91;;;5.81;100.00
63665;BME280;49820;33.966;73.390;2023-03-22T15:37:48;78676.97;;;5.74;100.00
63665;BME280;49820;33.966;73.390;2023-03-22T15:40:41;78691.59;;;5.67;100.00
63665;BME280;49820;33.966;73.390;2023-03-22T15:45:36;78687.16;;;5.46;100.00
63665;BME280;49820;33.966;73.390;2023-03-22T15:48:17;78676.75;;;5.21;100.00
63665;BME280;49820;33.966;73.390;2023-03-22T15:50:50;78678.81;;;5.13;100.00
63665;BME280;49820;33.966;73.390;2023-03-22T15:53:30;78694.03;;;5.16;100.00
63665;BME280;49820;33.966;73.390;2023-03-22T15:55:59;78692.72;;;5.15;100.00
63665;BME280;49820;33.966;73.390;2023-03-22T15:58:29;78693.97;;;5.22;100.00
63665;BME280;49820;33.966;73.390;2023-03-22T16:01:31;78697.16;;;5.37;100.00
63665;BME280;49820;33.966;73.390;2023-03-22T16:04:15;78686.63;;;5.31;100.00
63665;BME280;49820;33.966;73.390;2023-03-22T16:06:44;78693.84;;;5.36;100.00
63665;BME280;49820;33.966;73.390;2023-03-22T16:09:12;78683.31;;;5.30;100.00
63665;BME280;49820;33.966;73.390;2023-03-22T16:11:41;78689.13;;;5.49;100.00
63665;BME280;49820;33.966;73.390;2023-03-22T16:14:14;78689.50;;;5.76;100.00
63665;BME280;49820;33.966;73.390;2023-03-22T16:16:44;78696.03;;;5.91;100.00
63665;BME280;49820;33.966;73.390;2023-03-22T16:19:12;78681.50;;;5.82;100.00
63665;BME280;49820;33.966;73.390;2023-03-22T16:21:43;78696.72;;;5.90;100.00
63665;BME280;49820;33.966;73.390;2023-03-22T16:24:11;78702.00;;;5.86;100.00
63665;BME280;49820;33.966;73.390;2023-03-22T16:26:40;78682.13;;;5.85;100.00
63665;BME280;49820;33.966;73.390;2023-03-22T16:29:07;78690.75;;;5.85;100.00
63665;BME280;49820;33.966;73.390;2023-03-22T16:31:36;78696.63;;;5.96;100.00
63665;BME280;49820;33.966;73.390;2023-03-22T16:34:03;78703.06;;;6.15;100.00
63665;BME280;49820;33.966;73.390;2023-03-22T16:36:31;78703.72;;;6.16;100.00
63665;BME280;49820;33.966;73.390;2023-03-22T16:39:01;78684.66;;;6.01;100.00
63665;BME280;49820;33.966;73.390;2023-03-22T16:41:29;78691.22;;;6.06;100.00
63665;BME280;49820;33.966;73.390;2023-03-22T16:43:57;78694.00;;;5.96;100.00